CANO2: Clear Boggy Creek abv Caney Creek nr Caney, OK

                                SHEF ID:       CANO2     Clear Boggy Creek abv Caney Cree
STATION TYPE:
Regulating: Stage = 19.00, Flow = 2600

STAGE RIV-FLOW VOLTAGE BAT-LOAD
ft cfs volt volt
Ccp-Rev Ccp-Rev Ccp-Rev Ccp-Rev
(America/Chicago)
03/09 00:00 15.04 1220 12.66 ----
03/09 01:00 14.88 1170 12.63 ----
03/09 02:00 14.73 1110 12.63 ----
03/09 03:00 14.60 1070 12.61 ----
03/09 04:00 14.47 1030 12.59 ----
03/09 05:00 14.33 987 12.59 ----
03/09 06:00 14.22 952 12.57 ----
03/09 07:00 14.11 918 12.57 ----
03/09 08:00 14.05 896 12.56 ----
03/09 09:00 13.98 874 12.63 ----
03/09 10:00 13.90 850 12.95 ----
03/09 11:00 13.83 829 13.28 ----
03/09 12:00 ---- ---- ---- ----
03/09 13:00 ---- ---- ---- ----
03/09 14:00 13.71 794 13.78 ----
03/09 15:00 13.66 780 13.71 ----
03/09 16:00 13.61 765 13.58 ----
03/09 17:00 13.56 751 13.47 ----
03/09 18:00 13.52 740 13.36 ----
03/09 19:00 13.47 726 13.17 ----
03/09 20:00 13.43 715 12.94 ----
03/09 21:00 13.37 699 12.81 ----
03/09 22:00 13.34 691 12.72 ----
03/09 23:00 ---- ---- ---- ----
Data processed at Tue 10Mar2026 04:01 GMT

NOTICE: If you are parsing this page

Please convert to using our Data API. Starting early 2026 we will be migrating to: https://water.usace.army.mil with modern pages rendered in JavaScript. When this migration completes you will no longer be able to scrape this page! CWMSDataAPI (CDA)

Timeseries IDs (TSIDs)

TSIDs used from left to right in the data table
CANE.Stage.Inst.1Hour.0.Ccp-Rev
CANE.Flow.Inst.1Hour.0.Ccp-Rev
CANE.Volt-Battery.Inst.1Hour.0.Ccp-Rev
CANE.Volt-Battery Load.Inst.1Hour.0.Ccp-Rev

                            

All information presented herein is the property of the government of the United States of America and may be revised or deleted at any time without prior notice. Dissemination of this information without the expressed written consent of the Public Affairs Office, Tulsa District U.S. Army Corps of Engineers is strictly prohibited. These data are gathered electronically and, as presented, have NOT undergone any form of quality control. These data are NOT guaranteed to be valid or correct.